WESTPORT MEDIA Westport In The Media

Enter your "Place, State", US Zip Code or ICAO:  

Nice, France

 Lat: 43.65N, Lon: 7.20E
ICAO Used: LFMN
Current Conditions
Updated: 5:30 PM GMT1 WED APR 23 2014
Sun & Moon Information
Cumulonimbus Clouds Observed
Cumulonimbus Clouds Observed
Temp: 19°C
Humidity: 59%
Wind Speed: VRB2 MPH
Barometer: 1016 mb
Dewpoint: 11°C
Heat Index: 19°C
Wind Chill: 19°C
Civil Twilight: 5:04 AM GMT1 Moon Phase:
Waning Crescent Moon
Sunrise: 5:35 AM GMT1
Sunset: 7:23 PM GMT1
Civil Twilight: 7:54 PM GMT1
Forecast for Nice, France:
(Forecast based on TAF for )
0100 AM GMT1 WED APR 23 2014
  
EVENING OVERNIGHT
Fair Fair
ZoneCast:
Dated: 0100 AM GMT1 WED APR 23 2014
Evening...Becoming fair with winds from the northnorthwest at 9 mph.

Overnight...Fair with winds from the northnorthwest at 9 mph.

Original Encoded TAF:
Dated: 0100 AM GMT1 WED APR 23 2014
TAF LFMN 231100Z 2312/2418 20010KT 9999 FEW033 
     TEMPO 2313/2316 FEW040TCU 
     BECMG 2317/2319 34008KT CAVOK